sensor_id;sensor_type;location;lat;lon;timestamp;pressure;altitude;pressure_sealevel;temperature;humidity
34925;BME280;21130;51.728;8.748;2022-11-20T00:02:08;100118.19;;;-7.34;100.00
34925;BME280;21130;51.728;8.748;2022-11-20T00:04:34;100117.59;;;-7.38;100.00
34925;BME280;21130;51.728;8.748;2022-11-20T00:07:01;100110.63;;;-7.40;100.00
34925;BME280;21130;51.728;8.748;2022-11-20T00:09:27;100118.03;;;-7.42;100.00
34925;BME280;21130;51.728;8.748;2022-11-20T00:11:53;100108.38;;;-7.45;100.00
34925;BME280;21130;51.728;8.748;2022-11-20T00:14:21;100109.63;;;-7.49;100.00
34925;BME280;21130;51.728;8.748;2022-11-20T00:16:48;100107.66;;;-7.47;100.00
34925;BME280;21130;51.728;8.748;2022-11-20T00:19:15;100112.19;;;-7.47;100.00
34925;BME280;21130;51.728;8.748;2022-11-20T00:21:41;100106.53;;;-7.44;100.00
34925;BME280;21130;51.728;8.748;2022-11-20T00:24:08;100098.72;;;-7.47;100.00
34925;BME280;21130;51.728;8.748;2022-11-20T00:26:35;100106.94;;;-7.49;100.00
34925;BME280;21130;51.728;8.748;2022-11-20T00:29:05;100109.03;;;-7.52;100.00
34925;BME280;21130;51.728;8.748;2022-11-20T00:31:34;100101.97;;;-7.53;100.00
34925;BME280;21130;51.728;8.748;2022-11-20T00:34:01;100095.56;;;-7.52;100.00
34925;BME280;21130;51.728;8.748;2022-11-20T00:36:31;100076.00;;;-7.54;100.00
34925;BME280;21130;51.728;8.748;2022-11-20T00:38:58;100076.13;;;-7.56;100.00
34925;BME280;21130;51.728;8.748;2022-11-20T00:41:25;100082.38;;;-7.55;100.00
34925;BME280;21130;51.728;8.748;2022-11-20T00:43:54;100085.06;;;-7.55;100.00
34925;BME280;21130;51.728;8.748;2022-11-20T00:46:22;100078.97;;;-7.57;100.00
34925;BME280;21130;51.728;8.748;2022-11-20T00:48:51;100077.69;;;-7.63;100.00
34925;BME280;21130;51.728;8.748;2022-11-20T00:51:19;100076.28;;;-7.67;100.00
34925;BME280;21130;51.728;8.748;2022-11-20T00:53:46;100085.50;;;-7.70;100.00
34925;BME280;21130;51.728;8.748;2022-11-20T00:56:14;100078.66;;;-7.74;100.00
34925;BME280;21130;51.728;8.748;2022-11-20T00:58:43;100082.19;;;-7.73;100.00
34925;BME280;21130;51.728;8.748;2022-11-20T01:01:12;100075.53;;;-7.79;100.00
34925;BME280;21130;51.728;8.748;2022-11-20T01:03:40;100087.44;;;-7.82;100.00
34925;BME280;21130;51.728;8.748;2022-11-20T01:06:10;100088.28;;;-7.81;100.00
34925;BME280;21130;51.728;8.748;2022-11-20T01:08:38;100079.63;;;-7.75;100.00
34925;BME280;21130;51.728;8.748;2022-11-20T01:11:06;100084.91;;;-7.64;100.00
34925;BME280;21130;51.728;8.748;2022-11-20T01:13:34;100087.06;;;-7.67;100.00
34925;BME280;21130;51.728;8.748;2022-11-20T01:16:05;100084.19;;;-7.66;100.00
34925;BME280;21130;51.728;8.748;2022-11-20T01:18:32;100080.53;;;-7.65;100.00
34925;BME280;21130;51.728;8.748;2022-11-20T01:21:04;100073.84;;;-7.61;100.00
34925;BME280;21130;51.728;8.748;2022-11-20T01:23:33;100074.72;;;-7.50;100.00
34925;BME280;21130;51.728;8.748;2022-11-20T01:26:00;100082.97;;;-7.52;100.00
34925;BME280;21130;51.728;8.748;2022-11-20T01:28:28;100078.97;;;-7.48;100.00
34925;BME280;21130;51.728;8.748;2022-11-20T01:30:55;100073.88;;;-7.51;100.00
34925;BME280;21130;51.728;8.748;2022-11-20T01:33:22;100077.56;;;-7.52;100.00
34925;BME280;21130;51.728;8.748;2022-11-20T01:35:48;100073.59;;;-7.38;100.00
34925;BME280;21130;51.728;8.748;2022-11-20T01:38:15;100075.75;;;-7.32;100.00
34925;BME280;21130;51.728;8.748;2022-11-20T01:40:43;100076.19;;;-7.36;100.00
34925;BME280;21130;51.728;8.748;2022-11-20T01:43:14;100072.03;;;-7.41;100.00
34925;BME280;21130;51.728;8.748;2022-11-20T01:46:00;100074.91;;;-7.42;100.00
34925;BME280;21130;51.728;8.748;2022-11-20T01:48:32;100075.16;;;-7.45;100.00
34925;BME280;21130;51.728;8.748;2022-11-20T01:51:00;100081.69;;;-7.48;100.00
34925;BME280;21130;51.728;8.748;2022-11-20T01:53:30;100076.16;;;-7.46;100.00
34925;BME280;21130;51.728;8.748;2022-11-20T01:56:00;100075.56;;;-7.50;100.00
34925;BME280;21130;51.728;8.748;2022-11-20T01:58:31;100087.06;;;-7.48;100.00
34925;BME280;21130;51.728;8.748;2022-11-20T02:00:59;100089.19;;;-7.51;100.00
34925;BME280;21130;51.728;8.748;2022-11-20T02:03:27;100081.41;;;-7.54;100.00
34925;BME280;21130;51.728;8.748;2022-11-20T02:05:56;100085.06;;;-7.55;100.00
34925;BME280;21130;51.728;8.748;2022-11-20T02:08:25;100070.88;;;-7.57;100.00
34925;BME280;21130;51.728;8.748;2022-11-20T02:10:52;100073.84;;;-7.61;100.00
34925;BME280;21130;51.728;8.748;2022-11-20T02:13:20;100078.53;;;-7.63;100.00
34925;BME280;21130;51.728;8.748;2022-11-20T02:16:09;100072.44;;;-7.65;100.00
34925;BME280;21130;51.728;8.748;2022-11-20T02:18:36;100070.28;;;-7.71;100.00
34925;BME280;21130;51.728;8.748;2022-11-20T02:21:07;100075.56;;;-7.69;100.00
34925;BME280;21130;51.728;8.748;2022-11-20T02:23:38;100072.69;;;-7.68;100.00
34925;BME280;21130;51.728;8.748;2022-11-20T02:26:09;100073.00;;;-7.61;100.00
34925;BME280;21130;51.728;8.748;2022-11-20T02:38:59;100067.28;;;-7.77;100.00
34925;BME280;21130;51.728;8.748;2022-11-20T02:41:32;100065.16;;;-7.84;100.00
34925;BME280;21130;51.728;8.748;2022-11-20T02:43:59;100054.94;;;-7.90;100.00
34925;BME280;21130;51.728;8.748;2022-11-20T02:46:26;100045.72;;;-7.97;100.00
34925;BME280;21130;51.728;8.748;2022-11-20T02:48:53;100036.06;;;-7.99;100.00
34925;BME280;21130;51.728;8.748;2022-11-20T02:51:19;100045.13;;;-8.00;100.00
34925;BME280;21130;51.728;8.748;2022-11-20T02:53:46;100043.72;;;-8.05;100.00
34925;BME280;21130;51.728;8.748;2022-11-20T02:56:13;100052.03;;;-8.08;100.00
34925;BME280;21130;51.728;8.748;2022-11-20T02:58:41;100049.50;;;-8.09;100.00
34925;BME280;21130;51.728;8.748;2022-11-20T03:01:07;100048.06;;;-8.13;100.00
34925;BME280;21130;51.728;8.748;2022-11-20T03:03:34;100039.41;;;-8.17;100.00
34925;BME280;21130;51.728;8.748;2022-11-20T03:06:00;100032.31;;;-8.18;100.00
34925;BME280;21130;51.728;8.748;2022-11-20T03:08:27;100031.59;;;-8.20;100.00
34925;BME280;21130;51.728;8.748;2022-11-20T03:10:53;100038.97;;;-8.22;100.00
34925;BME280;21130;51.728;8.748;2022-11-20T03:13:20;100022.09;;;-8.24;100.00
34925;BME280;21130;51.728;8.748;2022-11-20T03:15:48;100027.59;;;-8.26;100.00
34925;BME280;21130;51.728;8.748;2022-11-20T03:18:14;100027.47;;;-8.24;100.00
34925;BME280;21130;51.728;8.748;2022-11-20T03:20:40;100026.91;;;-8.18;100.00
34925;BME280;21130;51.728;8.748;2022-11-20T03:23:07;100021.09;;;-8.23;100.00
34925;BME280;21130;51.728;8.748;2022-11-20T03:25:33;100022.09;;;-8.24;100.00
34925;BME280;21130;51.728;8.748;2022-11-20T03:28:00;100016.88;;;-8.16;100.00
34925;BME280;21130;51.728;8.748;2022-11-20T03:30:27;100007.09;;;-8.17;100.00
34925;BME280;21130;51.728;8.748;2022-11-20T03:32:55;100009.34;;;-8.22;100.00
34925;BME280;21130;51.728;8.748;2022-11-20T03:35:21;100002.53;;;-8.26;100.00
34925;BME280;21130;51.728;8.748;2022-11-20T03:37:48;100002.09;;;-8.31;100.00
34925;BME280;21130;51.728;8.748;2022-11-20T03:40:14;100007.75;;;-8.34;100.00
34925;BME280;21130;51.728;8.748;2022-11-20T03:42:41;100010.28;;;-8.33;100.00
34925;BME280;21130;51.728;8.748;2022-11-20T03:45:15;100014.09;;;-8.35;100.00
34925;BME280;21130;51.728;8.748;2022-11-20T03:47:42;100004.66;;;-8.39;100.00
34925;BME280;21130;51.728;8.748;2022-11-20T03:50:12;100011.88;;;-8.40;100.00
34925;BME280;21130;51.728;8.748;2022-11-20T03:52:39;100006.75;;;-8.33;100.00
34925;BME280;21130;51.728;8.748;2022-11-20T03:55:07;100006.31;;;-8.38;100.00
34925;BME280;21130;51.728;8.748;2022-11-20T03:57:33;100009.31;;;-8.41;100.00
34925;BME280;21130;51.728;8.748;2022-11-20T04:00:00;100010.44;;;-8.44;100.00
34925;BME280;21130;51.728;8.748;2022-11-20T04:02:26;100016.66;;;-8.43;100.00
34925;BME280;21130;51.728;8.748;2022-11-20T04:04:53;100016.94;;;-8.46;100.00
34925;BME280;21130;51.728;8.748;2022-11-20T04:07:20;100017.06;;;-8.48;100.00
34925;BME280;21130;51.728;8.748;2022-11-20T04:09:47;100002.03;;;-8.51;100.00
34925;BME280;21130;51.728;8.748;2022-11-20T04:12:13;100006.44;;;-8.50;100.00
34925;BME280;21130;51.728;8.748;2022-11-20T04:14:40;100016.59;;;-8.53;100.00
34925;BME280;21130;51.728;8.748;2022-11-20T04:17:06;100020.41;;;-8.56;100.00
34925;BME280;21130;51.728;8.748;2022-11-20T04:19:33;100033.88;;;-8.56;100.00
34925;BME280;21130;51.728;8.748;2022-11-20T04:21:59;100028.03;;;-8.61;100.00
34925;BME280;21130;51.728;8.748;2022-11-20T04:24:27;100025.34;;;-8.61;100.00
34925;BME280;21130;51.728;8.748;2022-11-20T04:26:54;100033.69;;;-8.64;100.00
34925;BME280;21130;51.728;8.748;2022-11-20T04:29:20;100022.94;;;-8.64;100.00
34925;BME280;21130;51.728;8.748;2022-11-20T04:31:47;100027.47;;;-8.64;100.00
34925;BME280;21130;51.728;8.748;2022-11-20T04:34:13;100016.72;;;-8.64;100.00
34925;BME280;21130;51.728;8.748;2022-11-20T04:36:40;100019.41;;;-8.64;100.00
34925;BME280;21130;51.728;8.748;2022-11-20T04:39:12;100025.91;;;-8.67;100.00
34925;BME280;21130;51.728;8.748;2022-11-20T04:41:40;100033.97;;;-8.67;100.00
34925;BME280;21130;51.728;8.748;2022-11-20T04:44:06;100033.13;;;-8.67;100.00
34925;BME280;21130;51.728;8.748;2022-11-20T04:46:35;100027.75;;;-8.67;100.00
34925;BME280;21130;51.728;8.748;2022-11-20T04:49:02;100026.03;;;-8.68;100.00
34925;BME280;21130;51.728;8.748;2022-11-20T04:51:29;100013.69;;;-8.71;100.00
34925;BME280;21130;51.728;8.748;2022-11-20T04:53:56;100009.56;;;-8.75;100.00
34925;BME280;21130;51.728;8.748;2022-11-20T04:56:22;100006.28;;;-8.79;100.00
34925;BME280;21130;51.728;8.748;2022-11-20T04:58:50;100005.44;;;-8.79;100.00
34925;BME280;21130;51.728;8.748;2022-11-20T05:01:19;99998.34;;;-8.80;100.00
34925;BME280;21130;51.728;8.748;2022-11-20T05:03:46;100000.19;;;-8.81;100.00
34925;BME280;21130;51.728;8.748;2022-11-20T05:06:16;99994.97;;;-8.82;100.00
34925;BME280;21130;51.728;8.748;2022-11-20T05:08:43;99998.78;;;-8.85;100.00
34925;BME280;21130;51.728;8.748;2022-11-20T05:11:11;99998.88;;;-8.86;100.00
34925;BME280;21130;51.728;8.748;2022-11-20T05:13:39;100010.66;;;-8.87;100.00
34925;BME280;21130;51.728;8.748;2022-11-20T05:16:09;100009.53;;;-8.85;100.00
34925;BME280;21130;51.728;8.748;2022-11-20T05:18:36;100018.44;;;-8.84;100.00
34925;BME280;21130;51.728;8.748;2022-11-20T05:21:04;100010.81;;;-8.79;100.00
34925;BME280;21130;51.728;8.748;2022-11-20T05:23:32;100014.53;;;-8.71;100.00
34925;BME280;21130;51.728;8.748;2022-11-20T05:25:59;100019.00;;;-8.60;100.00
34925;BME280;21130;51.728;8.748;2022-11-20T05:28:27;100018.78;;;-8.47;100.00
34925;BME280;21130;51.728;8.748;2022-11-20T05:30:54;100019.75;;;-8.38;100.00
34925;BME280;21130;51.728;8.748;2022-11-20T05:33:22;100014.97;;;-8.25;100.00
34925;BME280;21130;51.728;8.748;2022-11-20T05:35:49;100014.91;;;-8.14;100.00
34925;BME280;21130;51.728;8.748;2022-11-20T05:38:15;100018.91;;;-7.98;100.00
34925;BME280;21130;51.728;8.748;2022-11-20T05:40:42;100019.06;;;-7.90;100.00
34925;BME280;21130;51.728;8.748;2022-11-20T05:43:09;100014.81;;;-7.83;100.00
34925;BME280;21130;51.728;8.748;2022-11-20T05:45:35;100010.19;;;-7.71;100.00
34925;BME280;21130;51.728;8.748;2022-11-20T05:48:02;100016.13;;;-7.68;100.00
34925;BME280;21130;51.728;8.748;2022-11-20T05:50:31;100013.59;;;-7.59;100.00
34925;BME280;21130;51.728;8.748;2022-11-20T05:52:58;100014.16;;;-7.56;100.00
34925;BME280;21130;51.728;8.748;2022-11-20T05:55:25;100013.75;;;-7.51;100.00
34925;BME280;21130;51.728;8.748;2022-11-20T05:57:52;100006.09;;;-7.46;100.00
34925;BME280;21130;51.728;8.748;2022-11-20T06:00:18;100010.47;;;-7.45;100.00
34925;BME280;21130;51.728;8.748;2022-11-20T06:02:45;100015.31;;;-7.39;100.00
34925;BME280;21130;51.728;8.748;2022-11-20T06:05:11;100010.63;;;-7.37;100.00
34925;BME280;21130;51.728;8.748;2022-11-20T06:07:39;100009.94;;;-7.29;100.00
34925;BME280;21130;51.728;8.748;2022-11-20T06:10:06;100006.34;;;-7.30;100.00
34925;BME280;21130;51.728;8.748;2022-11-20T06:12:33;100005.22;;;-7.27;100.00
34925;BME280;21130;51.728;8.748;2022-11-20T06:14:59;99995.00;;;-7.24;100.00
34925;BME280;21130;51.728;8.748;2022-11-20T06:17:26;100005.38;;;-7.19;100.00
34925;BME280;21130;51.728;8.748;2022-11-20T06:19:52;100002.66;;;-7.09;100.00
34925;BME280;21130;51.728;8.748;2022-11-20T06:22:19;100007.06;;;-7.08;100.00
34925;BME280;21130;51.728;8.748;2022-11-20T06:24:47;100001.25;;;-7.04;100.00
34925;BME280;21130;51.728;8.748;2022-11-20T06:27:14;100010.72;;;-7.00;100.00
34925;BME280;21130;51.728;8.748;2022-11-20T06:29:40;100010.16;;;-6.93;100.00
34925;BME280;21130;51.728;8.748;2022-11-20T06:32:07;100012.13;;;-6.86;100.00
34925;BME280;21130;51.728;8.748;2022-11-20T06:34:33;100005.47;;;-6.82;100.00
34925;BME280;21130;51.728;8.748;2022-11-20T06:37:00;100004.16;;;-6.78;100.00
34925;BME280;21130;51.728;8.748;2022-11-20T06:39:26;100011.09;;;-6.75;100.00
34925;BME280;21130;51.728;8.748;2022-11-20T06:41:54;100006.41;;;-6.73;100.00
34925;BME280;21130;51.728;8.748;2022-11-20T06:44:21;99994.47;;;-6.70;100.00
34925;BME280;21130;51.728;8.748;2022-11-20T06:46:47;99998.91;;;-6.69;100.00
34925;BME280;21130;51.728;8.748;2022-11-20T06:49:14;99996.34;;;-6.71;100.00
34925;BME280;21130;51.728;8.748;2022-11-20T06:51:40;100001.44;;;-6.68;100.00
34925;BME280;21130;51.728;8.748;2022-11-20T06:54:07;100000.28;;;-6.65;100.00
34925;BME280;21130;51.728;8.748;2022-11-20T06:56:33;99997.59;;;-6.65;100.00
34925;BME280;21130;51.728;8.748;2022-11-20T06:59:05;100002.69;;;-6.62;100.00
34925;BME280;21130;51.728;8.748;2022-11-20T07:01:32;100003.25;;;-6.59;100.00
34925;BME280;21130;51.728;8.748;2022-11-20T07:03:58;99996.13;;;-6.50;100.00
34925;BME280;21130;51.728;8.748;2022-11-20T07:06:25;99999.66;;;-6.49;100.00
34925;BME280;21130;51.728;8.748;2022-11-20T07:08:51;100007.31;;;-6.45;100.00
34925;BME280;21130;51.728;8.748;2022-11-20T07:11:18;100008.59;;;-6.39;100.00
34925;BME280;21130;51.728;8.748;2022-11-20T07:13:44;100011.72;;;-6.34;100.00
34925;BME280;21130;51.728;8.748;2022-11-20T07:16:12;100011.81;;;-6.26;100.00
34925;BME280;21130;51.728;8.748;2022-11-20T07:18:39;100018.16;;;-6.17;100.00
34925;BME280;21130;51.728;8.748;2022-11-20T07:21:07;100022.81;;;-6.10;100.00
34925;BME280;21130;51.728;8.748;2022-11-20T07:23:33;100026.63;;;-6.02;100.00
34925;BME280;21130;51.728;8.748;2022-11-20T07:26:02;100030.41;;;-5.95;100.00
34925;BME280;21130;51.728;8.748;2022-11-20T07:28:29;100025.94;;;-5.87;100.00
34925;BME280;21130;51.728;8.748;2022-11-20T07:30:55;100027.41;;;-5.74;100.00
34925;BME280;21130;51.728;8.748;2022-11-20T07:33:23;100024.13;;;-5.68;100.00
34925;BME280;21130;51.728;8.748;2022-11-20T07:35:50;100027.75;;;-5.59;100.00
34925;BME280;21130;51.728;8.748;2022-11-20T07:38:16;100037.19;;;-5.46;100.00
34925;BME280;21130;51.728;8.748;2022-11-20T07:40:43;100034.19;;;-5.43;100.00
34925;BME280;21130;51.728;8.748;2022-11-20T07:43:09;100034.97;;;-5.32;100.00
34925;BME280;21130;51.728;8.748;2022-11-20T07:45:36;100034.56;;;-5.19;100.00
34925;BME280;21130;51.728;8.748;2022-11-20T07:48:03;100038.69;;;-5.15;100.00
34925;BME280;21130;51.728;8.748;2022-11-20T07:50:31;100031.78;;;-5.10;100.00
34925;BME280;21130;51.728;8.748;2022-11-20T07:53:02;100036.28;;;-5.01;100.00
34925;BME280;21130;51.728;8.748;2022-11-20T07:55:28;100035.88;;;-4.88;100.00
34925;BME280;21130;51.728;8.748;2022-11-20T07:57:55;100040.34;;;-4.79;100.00
34925;BME280;21130;51.728;8.748;2022-11-20T08:00:23;100033.44;;;-4.73;100.00
34925;BME280;21130;51.728;8.748;2022-11-20T08:02:49;100028.47;;;-4.60;100.00
34925;BME280;21130;51.728;8.748;2022-11-20T08:05:16;100034.94;;;-4.52;100.00
34925;BME280;21130;51.728;8.748;2022-11-20T08:07:44;100028.94;;;-4.38;100.00
34925;BME280;21130;51.728;8.748;2022-11-20T08:10:13;100036.19;;;-4.13;100.00
34925;BME280;21130;51.728;8.748;2022-11-20T08:12:44;100019.81;;;-4.03;100.00
34925;BME280;21130;51.728;8.748;2022-11-20T08:15:28;100026.97;;;-3.94;100.00
34925;BME280;21130;51.728;8.748;2022-11-20T08:17:59;100035.50;;;-3.80;100.00
34925;BME280;21130;51.728;8.748;2022-11-20T08:20:26;100027.56;;;-3.74;100.00
34925;BME280;21130;51.728;8.748;2022-11-20T08:22:58;100032.66;;;-3.62;100.00
34925;BME280;21130;51.728;8.748;2022-11-20T08:25:25;100030.31;;;-3.57;100.00
34925;BME280;21130;51.728;8.748;2022-11-20T08:27:52;100028.50;;;-3.40;100.00
34925;BME280;21130;51.728;8.748;2022-11-20T08:30:18;100025.09;;;-3.34;100.00
34925;BME280;21130;51.728;8.748;2022-11-20T08:32:45;100015.63;;;-3.30;100.00
34925;BME280;21130;51.728;8.748;2022-11-20T08:35:11;100020.22;;;-3.14;100.00
34925;BME280;21130;51.728;8.748;2022-11-20T08:37:38;100018.69;;;-3.09;100.00
34925;BME280;21130;51.728;8.748;2022-11-20T08:40:09;100015.84;;;-2.91;100.00
34925;BME280;21130;51.728;8.748;2022-11-20T08:42:36;100029.38;;;-3.15;100.00
34925;BME280;21130;51.728;8.748;2022-11-20T08:45:03;100031.09;;;-2.98;100.00
34925;BME280;21130;51.728;8.748;2022-11-20T08:47:30;100032.28;;;-3.00;100.00
34925;BME280;21130;51.728;8.748;2022-11-20T08:49:57;100030.59;;;-2.93;100.00
34925;BME280;21130;51.728;8.748;2022-11-20T08:52:23;100032.44;;;-3.02;100.00
34925;BME280;21130;51.728;8.748;2022-11-20T08:54:50;100036.69;;;-3.08;100.00
34925;BME280;21130;51.728;8.748;2022-11-20T08:57:18;100028.88;;;-2.86;100.00
34925;BME280;21130;51.728;8.748;2022-11-20T08:59:45;100031.09;;;-2.82;100.00
34925;BME280;21130;51.728;8.748;2022-11-20T09:02:12;100035.34;;;-2.71;100.00
34925;BME280;21130;51.728;8.748;2022-11-20T09:04:38;100024.81;;;-2.66;100.00
34925;BME280;21130;51.728;8.748;2022-11-20T09:07:05;100032.78;;;-2.64;100.00
34925;BME280;21130;51.728;8.748;2022-11-20T09:09:31;100027.47;;;-2.41;100.00
34925;BME280;21130;51.728;8.748;2022-11-20T09:11:58;100028.69;;;-2.52;100.00
34925;BME280;21130;51.728;8.748;2022-11-20T09:14:26;100036.81;;;-2.44;100.00
34925;BME280;21130;51.728;8.748;2022-11-20T09:16:55;100029.16;;;-2.32;100.00
34925;BME280;21130;51.728;8.748;2022-11-20T09:19:23;100031.31;;;-2.11;100.00
34925;BME280;21130;51.728;8.748;2022-11-20T09:21:49;100025.59;;;-1.77;100.00
34925;BME280;21130;51.728;8.748;2022-11-20T09:24:16;100026.94;;;-1.41;100.00
34925;BME280;21130;51.728;8.748;2022-11-20T09:26:43;100024.25;;;-0.95;100.00
34925;BME280;21130;51.728;8.748;2022-11-20T09:29:10;100015.88;;;-0.71;100.00
34925;BME280;21130;51.728;8.748;2022-11-20T09:31:38;100015.84;;;-0.18;100.00
34925;BME280;21130;51.728;8.748;2022-11-20T09:34:04;100015.25;;;0.82;100.00
34925;BME280;21130;51.728;8.748;2022-11-20T09:36:31;100018.63;;;1.77;100.00
34925;BME280;21130;51.728;8.748;2022-11-20T09:38:57;100002.78;;;2.42;100.00
34925;BME280;21130;51.728;8.748;2022-11-20T09:41:35;99994.13;;;3.53;100.00
34925;BME280;21130;51.728;8.748;2022-11-20T09:44:13;99994.88;;;4.27;100.00
34925;BME280;21130;51.728;8.748;2022-11-20T09:46:52;99989.41;;;4.72;100.00
34925;BME280;21130;51.728;8.748;2022-11-20T09:49:27;99992.53;;;6.14;100.00
34925;BME280;21130;51.728;8.748;2022-11-20T09:51:58;99990.75;;;7.05;90.68
34925;BME280;21130;51.728;8.748;2022-11-20T09:54:27;99989.78;;;7.53;80.82
34925;BME280;21130;51.728;8.748;2022-11-20T09:57:00;99983.44;;;7.65;81.05
34925;BME280;21130;51.728;8.748;2022-11-20T09:59:38;99988.75;;;7.12;74.11
34925;BME280;21130;51.728;8.748;2022-11-20T10:02:16;99976.91;;;6.93;75.87
34925;BME280;21130;51.728;8.748;2022-11-20T10:04:55;99975.09;;;7.29;76.30
34925;BME280;21130;51.728;8.748;2022-11-20T10:07:24;99986.19;;;5.89;74.66
34925;BME280;21130;51.728;8.748;2022-11-20T10:09:55;99980.06;;;6.48;81.40
34925;BME280;21130;51.728;8.748;2022-11-20T10:12:27;99970.56;;;6.26;86.65
34925;BME280;21130;51.728;8.748;2022-11-20T10:15:04;99963.91;;;6.15;88.64
34925;BME280;21130;51.728;8.748;2022-11-20T10:17:55;99956.56;;;6.27;87.22
34925;BME280;21130;51.728;8.748;2022-11-20T10:20:32;99952.28;;;5.95;91.53
34925;BME280;21130;51.728;8.748;2022-11-20T10:23:18;99960.72;;;5.75;88.58
34925;BME280;21130;51.728;8.748;2022-11-20T10:25:52;99948.75;;;5.37;89.81
34925;BME280;21130;51.728;8.748;2022-11-20T10:28:29;99952.31;;;5.88;92.70
34925;BME280;21130;51.728;8.748;2022-11-20T10:30:59;99940.38;;;5.01;95.50
34925;BME280;21130;51.728;8.748;2022-11-20T10:33:31;99944.78;;;4.70;100.00
34925;BME280;21130;51.728;8.748;2022-11-20T10:36:05;99942.31;;;5.50;100.00
34925;BME280;21130;51.728;8.748;2022-11-20T10:38:37;99930.00;;;5.03;100.00
34925;BME280;21130;51.728;8.748;2022-11-20T10:41:06;99942.38;;;5.87;97.27
34925;BME280;21130;51.728;8.748;2022-11-20T10:43:54;99928.00;;;6.03;94.91
34925;BME280;21130;51.728;8.748;2022-11-20T10:46:24;99932.56;;;5.73;96.56
34925;BME280;21130;51.728;8.748;2022-11-20T10:48:53;99926.00;;;5.49;95.94
34925;BME280;21130;51.728;8.748;2022-11-20T10:51:36;99929.25;;;5.14;99.85
34925;BME280;21130;51.728;8.748;2022-11-20T10:54:15;99928.38;;;5.45;100.00
34925;BME280;21130;51.728;8.748;2022-11-20T10:56:46;99921.03;;;6.38;95.40
34925;BME280;21130;51.728;8.748;2022-11-20T10:59:38;99913.06;;;5.93;89.87
34925;BME280;21130;51.728;8.748;2022-11-20T11:02:18;99902.69;;;5.26;100.00
34925;BME280;21130;51.728;8.748;2022-11-20T11:04:47;99902.13;;;4.92;100.00
34925;BME280;21130;51.728;8.748;2022-11-20T11:07:17;99903.25;;;4.53;100.00
34925;BME280;21130;51.728;8.748;2022-11-20T11:09:47;99901.13;;;4.55;100.00
34925;BME280;21130;51.728;8.748;2022-11-20T11:12:15;99898.81;;;4.52;100.00
34925;BME280;21130;51.728;8.748;2022-11-20T11:14:47;99890.78;;;4.50;100.00
34925;BME280;21130;51.728;8.748;2022-11-20T11:17:21;99893.50;;;4.57;100.00
34925;BME280;21130;51.728;8.748;2022-11-20T11:20:01;99892.53;;;4.38;100.00
34925;BME280;21130;51.728;8.748;2022-11-20T11:22:29;99887.78;;;4.90;100.00
34925;BME280;21130;51.728;8.748;2022-11-20T11:24:57;99884.50;;;4.75;100.00
34925;BME280;21130;51.728;8.748;2022-11-20T11:27:24;99871.22;;;4.72;100.00
34925;BME280;21130;51.728;8.748;2022-11-20T11:30:02;99875.31;;;5.13;100.00
34925;BME280;21130;51.728;8.748;2022-11-20T11:32:28;99875.94;;;5.15;100.00
34925;BME280;21130;51.728;8.748;2022-11-20T11:35:00;99875.88;;;5.83;100.00
34925;BME280;21130;51.728;8.748;2022-11-20T11:37:33;99871.81;;;5.68;96.40
34925;BME280;21130;51.728;8.748;2022-11-20T11:40:01;99880.09;;;5.68;92.30
34925;BME280;21130;51.728;8.748;2022-11-20T11:42:28;99875.41;;;5.50;96.21
34925;BME280;21130;51.728;8.748;2022-11-20T11:44:57;99871.34;;;5.52;94.32
34925;BME280;21130;51.728;8.748;2022-11-20T11:47:33;99864.94;;;5.58;96.33
34925;BME280;21130;51.728;8.748;2022-11-20T11:50:19;99864.16;;;5.51;98.85
34925;BME280;21130;51.728;8.748;2022-11-20T11:52:53;99864.44;;;5.43;100.00
34925;BME280;21130;51.728;8.748;2022-11-20T11:55:29;99865.63;;;5.91;97.21
34925;BME280;21130;51.728;8.748;2022-11-20T11:58:05;99851.41;;;5.75;97.35
34925;BME280;21130;51.728;8.748;2022-11-20T12:00:35;99857.22;;;5.85;99.18
34925;BME280;21130;51.728;8.748;2022-11-20T12:03:09;99848.47;;;5.08;99.31
34925;BME280;21130;51.728;8.748;2022-11-20T12:05:44;99854.75;;;4.65;100.00
34925;BME280;21130;51.728;8.748;2022-11-20T12:08:16;99857.56;;;4.84;100.00
34925;BME280;21130;51.728;8.748;2022-11-20T12:10:48;99855.69;;;4.84;100.00
34925;BME280;21130;51.728;8.748;2022-11-20T12:13:34;99849.81;;;4.74;100.00
34925;BME280;21130;51.728;8.748;2022-11-20T12:16:04;99842.91;;;4.65;100.00
34925;BME280;21130;51.728;8.748;2022-11-20T12:18:31;99848.47;;;4.83;100.00
34925;BME280;21130;51.728;8.748;2022-11-20T12:21:08;99838.28;;;4.59;100.00
34925;BME280;21130;51.728;8.748;2022-11-20T12:23:46;99838.84;;;4.42;100.00
34925;BME280;21130;51.728;8.748;2022-11-20T13:11:09;99806.63;;;2.21;100.00
34925;BME280;21130;51.728;8.748;2022-11-20T13:13:44;99802.22;;;2.27;100.00
34925;BME280;21130;51.728;8.748;2022-11-20T13:16:17;99788.72;;;2.25;100.00
34925;BME280;21130;51.728;8.748;2022-11-20T13:18:45;99782.84;;;2.35;100.00
34925;BME280;21130;51.728;8.748;2022-11-20T13:21:16;99779.50;;;2.46;100.00
34925;BME280;21130;51.728;8.748;2022-11-20T13:23:43;99776.34;;;2.56;100.00
34925;BME280;21130;51.728;8.748;2022-11-20T13:26:20;99776.09;;;2.37;100.00
34925;BME280;21130;51.728;8.748;2022-11-20T13:29:11;99775.69;;;2.41;100.00
34925;BME280;21130;51.728;8.748;2022-11-20T13:31:42;99774.22;;;2.31;100.00
34925;BME280;21130;51.728;8.748;2022-11-20T13:34:12;99771.47;;;2.38;100.00
34925;BME280;21130;51.728;8.748;2022-11-20T13:36:49;99765.97;;;2.38;100.00
34925;BME280;21130;51.728;8.748;2022-11-20T13:39:24;99764.31;;;2.44;100.00
34925;BME280;21130;51.728;8.748;2022-11-20T13:41:55;99756.28;;;2.35;100.00
34925;BME280;21130;51.728;8.748;2022-11-20T13:44:25;99768.50;;;2.33;100.00
34925;BME280;21130;51.728;8.748;2022-11-20T13:46:53;99759.25;;;2.27;100.00
34925;BME280;21130;51.728;8.748;2022-11-20T13:49:25;99752.28;;;2.18;100.00
34925;BME280;21130;51.728;8.748;2022-11-20T13:51:58;99758.38;;;2.07;100.00
34925;BME280;21130;51.728;8.748;2022-11-20T13:54:45;99753.31;;;1.97;100.00